Hauptseite
METAR-TAF:

METAR-TAF

Flughäfen :

Lydd, England

Breite: 50-57N, Länge: 000-56E, Höhe: 3 m

Beobachtung

Neuester Wetterbericht von vor 35 Minuten, um 03:50 UTC
Wind 2 kt aus unterschiedlichen Richtungen
Temperatur 6°C
Luftfeuchtigkeit 100%
Luftdruck 1009 hPa
Sichtweite: 9000 m

METAR: EGMD 170350Z AUTO VRB02KT 9000 SCT026/// OVC031/// 06/06 Q1009

Zeit: 04:25 (04:25 UTC)

Prognose

Neuester Wetterbericht von vor 2 Stunden und 34 Minuten, um 01:51 UTC
Gültige Prognose vom 17 um 03 UTC bis 17 um 12 UTC
Wind 5 kt aus unterschiedlichen Richtungen
Sichtweite 10 km oder mehr
Aufgelockert bewölkt in der Höhe von 3000 ft
Wahrscheinlichkeit 40% :
Zeitweise
vom 17 um 03 UTC bis 17 um 12 UTC
Sichtweite: 8000 m
Regenschauer

TAF: EGMD 170151Z 1703/1712 VRB05KT 9999 SCT030 PROB40 TEMPO 1703/1712 8000 SHRA

Wetterbeobachtungen und Prognosen von mehr als 4000 Flughäfen (METAR und TAF Bericht).

Die verfügbaren Stationen werden durch gelbe und rote Markierungen auf der Karte dargestellt.

Führen Sie die Maus auf sie, um den Namen der Station zu sehen.

Darauf klicken, um die Beobachtung von Wetterbeobachtungen und Prognosen zu sehen.

Um die Karte zu ändern : klicken Sie auf den grünen Tasten mit einem schwarzen Kreuz Zum Vergrößern, auf den grünen Button mit einem Gedankenstrich zu verkleinern, oder auf die grünen Pfeile für benachbarte Karten.


METAR-TAF: